createdAt,value
2023-02-02T00:00:55.570Z,1.30
2023-02-02T00:03:21.933Z,2.13
2023-02-02T00:05:49.371Z,1.80
2023-02-02T00:08:16.425Z,1.63
2023-02-02T00:10:43.124Z,1.98
2023-02-02T00:13:09.491Z,2.00
2023-02-02T00:15:35.816Z,1.80
2023-02-02T00:18:02.498Z,1.90
2023-02-02T00:20:29.505Z,2.40
2023-02-02T00:22:56.149Z,2.20
2023-02-02T00:25:23.395Z,2.30
2023-02-02T00:27:49.960Z,2.47
2023-02-02T00:30:16.360Z,2.63
2023-02-02T00:32:42.897Z,3.42
2023-02-02T00:35:09.377Z,3.72
2023-02-02T00:37:36.138Z,3.17
2023-02-02T00:40:02.577Z,3.17
2023-02-02T00:42:28.986Z,2.08
2023-02-02T00:45:14.093Z,3.17
2023-02-02T00:47:40.493Z,2.53
2023-02-02T00:50:07.154Z,2.15
2023-02-02T00:52:33.537Z,2.10
2023-02-02T00:54:59.879Z,2.40
2023-02-02T00:57:26.284Z,2.45
2023-02-02T00:59:52.599Z,2.17
2023-02-02T01:02:18.982Z,2.45
2023-02-02T01:04:45.519Z,2.50
2023-02-02T01:07:11.866Z,1.67
2023-02-02T01:09:38.244Z,2.40
2023-02-02T01:12:05.830Z,1.67
2023-02-02T01:14:32.315Z,2.13
2023-02-02T01:16:58.692Z,1.70
2023-02-02T01:19:25.114Z,1.70
2023-02-02T01:21:51.451Z,1.70
2023-02-02T01:24:17.781Z,1.52
2023-02-02T01:26:44.298Z,1.75
2023-02-02T01:29:10.980Z,1.88
2023-02-02T01:31:37.381Z,1.77
2023-02-02T01:34:04.177Z,1.55
2023-02-02T01:36:30.540Z,1.80
2023-02-02T01:38:57.007Z,1.60
2023-02-02T01:41:24.324Z,1.73
2023-02-02T01:43:52.697Z,2.22
2023-02-02T01:46:20.138Z,1.77
2023-02-02T01:48:49.005Z,1.50
2023-02-02T01:51:17.230Z,1.65
2023-02-02T01:53:44.322Z,1.45
2023-02-02T01:56:12.432Z,1.52
2023-02-02T01:58:40.742Z,1.90
2023-02-02T02:01:07.331Z,1.60
2023-02-02T02:03:35.873Z,1.48
2023-02-02T02:06:05.828Z,1.67
2023-02-02T02:08:38.352Z,1.52
2023-02-02T02:11:05.008Z,1.20
2023-02-02T02:13:50.880Z,1.90
2023-02-02T02:19:02.941Z,1.73
2023-02-02T02:21:56.054Z,1.23
2023-02-02T02:25:00.979Z,1.67
2023-02-02T02:27:36.194Z,1.27
2023-02-02T02:30:05.740Z,1.27
2023-02-02T02:32:52.804Z,1.55
2023-02-02T02:35:19.153Z,1.70
2023-02-02T02:37:56.775Z,1.50
2023-02-02T02:40:23.231Z,1.08
2023-02-02T02:42:54.869Z,1.33
2023-02-02T02:45:22.080Z,1.42
2023-02-02T02:47:49.212Z,1.30
2023-02-02T02:50:16.191Z,1.60
2023-02-02T02:52:42.958Z,1.17
2023-02-02T02:55:10.655Z,1.15
2023-02-02T02:57:55.652Z,1.33
2023-02-02T03:00:22.155Z,1.37
2023-02-02T03:03:07.195Z,1.50
2023-02-02T03:05:33.667Z,1.10
2023-02-02T03:08:18.638Z,1.42
2023-02-02T03:10:46.236Z,1.03
2023-02-02T03:13:14.253Z,1.30
2023-02-02T03:15:41.217Z,1.33
2023-02-02T03:18:07.890Z,1.33
2023-02-02T03:20:34.624Z,1.40
2023-02-02T03:23:00.996Z,1.50
2023-02-02T03:25:27.318Z,1.52
2023-02-02T03:27:53.761Z,1.20
2023-02-02T03:30:20.792Z,1.63
2023-02-02T03:32:47.328Z,1.25
2023-02-02T03:35:13.657Z,1.10
2023-02-02T03:37:40.104Z,1.30
2023-02-02T03:40:06.787Z,1.60
2023-02-02T03:42:34.449Z,1.75
2023-02-02T03:45:00.855Z,1.20
2023-02-02T03:47:30.797Z,1.23
2023-02-02T03:49:57.501Z,1.30
2023-02-02T03:52:24.091Z,1.23
2023-02-02T03:54:50.699Z,1.42
2023-02-02T03:57:17.246Z,1.20
2023-02-02T03:59:43.605Z,1.30
2023-02-02T04:02:10.018Z,1.55
2023-02-02T04:04:36.367Z,1.50
2023-02-02T04:07:02.977Z,1.55
2023-02-02T04:09:29.451Z,1.30
2023-02-02T04:11:55.816Z,1.67
2023-02-02T04:14:22.161Z,1.00
2023-02-02T04:16:48.529Z,1.35
2023-02-02T04:19:15.074Z,1.20
2023-02-02T04:21:41.538Z,1.40
2023-02-02T04:24:10.968Z,1.45
2023-02-02T04:26:37.359Z,1.30
2023-02-02T04:29:03.851Z,1.77
2023-02-02T04:31:30.409Z,1.38
2023-02-02T04:33:56.830Z,1.90
2023-02-02T04:36:23.229Z,2.03
2023-02-02T04:38:53.272Z,1.33
2023-02-02T04:41:20.221Z,1.30
2023-02-02T04:43:46.992Z,1.45
2023-02-02T04:46:13.909Z,1.63
2023-02-02T04:48:43.705Z,1.80
2023-02-02T04:51:11.685Z,1.88
2023-02-02T04:53:38.314Z,1.70
2023-02-02T04:56:07.937Z,1.67
2023-02-02T04:58:34.318Z,1.23
2023-02-02T05:01:00.907Z,1.30
2023-02-02T05:03:27.311Z,1.40
2023-02-02T05:06:03.112Z,1.35
2023-02-02T05:08:29.619Z,1.85
2023-02-02T05:10:55.940Z,1.60
2023-02-02T05:13:22.361Z,2.15
2023-02-02T05:15:48.994Z,2.17
2023-02-02T05:18:15.468Z,1.50
2023-02-02T05:20:41.822Z,1.55
2023-02-02T05:23:08.225Z,1.88
2023-02-02T05:25:34.546Z,1.85
2023-02-02T05:28:00.877Z,1.95
2023-02-02T05:30:27.369Z,1.70
2023-02-02T05:32:53.698Z,1.65
2023-02-02T05:35:20.071Z,1.80
2023-02-02T05:37:46.452Z,2.03
2023-02-02T05:40:12.847Z,1.08
2023-02-02T05:42:39.211Z,1.77
2023-02-02T05:45:05.931Z,1.67
2023-02-02T05:47:32.286Z,1.58
2023-02-02T05:49:58.856Z,1.50
2023-02-02T05:52:25.630Z,1.50
2023-02-02T05:54:51.955Z,1.67
2023-02-02T05:57:18.367Z,1.42
2023-02-02T05:59:44.784Z,1.40
2023-02-02T06:02:11.158Z,1.80
2023-02-02T06:04:37.598Z,2.05
2023-02-02T06:07:04.216Z,1.48
2023-02-02T06:09:30.638Z,1.50
2023-02-02T06:11:56.980Z,1.50
2023-02-02T06:14:23.294Z,1.70
2023-02-02T06:16:49.863Z,1.98
2023-02-02T06:19:16.244Z,1.67
2023-02-02T06:21:42.587Z,1.30
2023-02-02T06:24:09.876Z,1.40
2023-02-02T06:26:36.378Z,1.60
2023-02-02T06:29:02.941Z,2.08
2023-02-02T06:31:29.634Z,1.65
2023-02-02T06:33:57.038Z,2.05
2023-02-02T06:36:24.050Z,2.03
2023-02-02T06:38:51.325Z,1.50
2023-02-02T06:41:18.299Z,1.70
2023-02-02T06:43:44.707Z,1.70
2023-02-02T06:46:11.060Z,2.20
2023-02-02T06:48:37.625Z,1.48
2023-02-02T06:51:05.523Z,1.45
2023-02-02T06:53:32.322Z,1.35
2023-02-02T06:56:00.406Z,1.48
2023-02-02T06:58:27.593Z,1.60
2023-02-02T07:00:54.089Z,2.08
2023-02-02T07:03:24.051Z,1.48
2023-02-02T07:05:50.477Z,1.98
2023-02-02T07:08:17.043Z,1.92
2023-02-02T07:11:12.002Z,1.40
2023-02-02T07:13:31.020Z,2.05
2023-02-02T07:15:58.262Z,1.50
2023-02-02T07:18:24.699Z,1.90
2023-02-02T07:20:51.782Z,1.60
2023-02-02T07:23:18.167Z,1.48
2023-02-02T07:25:44.505Z,1.85
2023-02-02T07:28:10.942Z,1.80
2023-02-02T07:30:37.424Z,1.85
2023-02-02T07:33:03.811Z,1.63
2023-02-02T07:35:30.256Z,1.65
2023-02-02T07:37:56.665Z,1.65
2023-02-02T07:40:23.128Z,1.65
2023-02-02T07:42:52.347Z,2.03
2023-02-02T07:45:35.971Z,1.77
2023-02-02T07:48:02.947Z,1.65
2023-02-02T07:50:30.607Z,1.95
2023-02-02T07:52:58.844Z,1.85
2023-02-02T07:55:25.268Z,1.48
2023-02-02T07:57:52.087Z,1.70
2023-02-02T08:00:18.937Z,2.63
2023-02-02T08:02:48.378Z,1.85
2023-02-02T08:05:14.830Z,1.73
2023-02-02T08:07:41.214Z,1.50
2023-02-02T08:10:07.762Z,1.52
2023-02-02T08:12:34.082Z,2.63
2023-02-02T08:15:00.601Z,2.45
2023-02-02T08:17:26.982Z,2.28
2023-02-02T08:19:53.323Z,2.53
2023-02-02T08:22:20.466Z,2.60
2023-02-02T08:24:46.955Z,2.63
2023-02-02T08:27:13.422Z,2.40
2023-02-02T08:29:39.876Z,2.28
2023-02-02T08:32:06.280Z,2.53
2023-02-02T08:34:36.784Z,2.05
2023-02-02T08:37:03.609Z,1.60
2023-02-02T08:39:29.939Z,1.83
2023-02-02T08:41:56.582Z,1.60
2023-02-02T08:44:23.523Z,1.48
2023-02-02T08:46:51.532Z,2.10
2023-02-02T08:49:17.889Z,1.75
2023-02-02T08:51:44.317Z,1.73
2023-02-02T08:54:10.656Z,1.83
2023-02-02T08:56:36.992Z,2.40
2023-02-02T08:59:04.888Z,1.75
2023-02-02T09:01:32.314Z,1.90
2023-02-02T09:04:00.142Z,1.92
2023-02-02T09:06:29.340Z,2.13
2023-02-02T09:08:55.642Z,1.85
2023-02-02T09:11:22.060Z,1.63
2023-02-02T09:13:49.398Z,1.38
2023-02-02T09:16:17.108Z,1.83
2023-02-02T09:18:44.180Z,1.73
2023-02-02T09:21:11.950Z,1.73
2023-02-02T09:23:39.228Z,1.77
2023-02-02T09:26:18.076Z,1.88
2023-02-02T09:28:45.848Z,1.55
2023-02-02T09:31:12.443Z,2.38
2023-02-02T09:33:38.860Z,1.63
2023-02-02T09:36:08.111Z,1.80
2023-02-02T09:38:34.647Z,1.40
2023-02-02T09:41:01.916Z,1.50
2023-02-02T09:43:35.299Z,1.67
2023-02-02T09:46:08.029Z,2.00
2023-02-02T09:48:53.952Z,1.45
2023-02-02T09:53:55.473Z,1.65
2023-02-02T09:56:43.215Z,1.45
2023-02-02T09:59:20.548Z,1.90
2023-02-02T10:01:49.963Z,1.55
2023-02-02T10:04:16.403Z,2.03
2023-02-02T10:06:46.922Z,1.60
2023-02-02T10:09:36.839Z,1.58
2023-02-02T10:12:06.351Z,1.55
2023-02-02T10:14:40.386Z,1.60
2023-02-02T10:17:25.404Z,1.65
2023-02-02T10:19:54.284Z,1.67
2023-02-02T10:22:23.182Z,2.13
2023-02-02T10:24:49.561Z,1.90
2023-02-02T10:27:17.213Z,1.70
2023-02-02T10:29:49.091Z,1.83
2023-02-02T10:32:22.463Z,1.65
2023-02-02T10:34:48.775Z,1.70
2023-02-02T10:37:17.941Z,2.00
2023-02-02T10:39:50.409Z,1.67
2023-02-02T10:42:16.778Z,2.20
2023-02-02T10:44:52.964Z,1.58
2023-02-02T10:47:25.408Z,1.70
2023-02-02T10:50:00.224Z,1.60
2023-02-02T10:52:30.133Z,1.25
2023-02-02T10:55:04.436Z,1.45
2023-02-02T10:57:42.809Z,1.83
2023-02-02T11:00:22.352Z,1.70
2023-02-02T11:02:49.791Z,1.50
2023-02-02T11:05:48.053Z,2.05
2023-02-02T11:08:15.955Z,1.48
2023-02-02T11:10:44.009Z,2.00
2023-02-02T11:13:15.122Z,1.92
2023-02-02T11:15:41.478Z,1.98
2023-02-02T11:18:25.741Z,1.80
2023-02-02T11:20:52.054Z,1.80
2023-02-02T11:23:20.838Z,1.98
2023-02-02T11:25:56.691Z,1.83
2023-02-02T11:28:24.877Z,2.03
2023-02-02T11:30:53.351Z,1.70
2023-02-02T11:33:25.707Z,1.50
2023-02-02T11:35:53.249Z,1.75
2023-02-02T11:38:19.559Z,1.30
2023-02-02T11:40:52.276Z,1.30
2023-02-02T11:43:28.613Z,1.55
2023-02-02T11:45:57.489Z,1.55
2023-02-02T11:48:26.364Z,1.55
2023-02-02T11:50:54.562Z,1.10
2023-02-02T11:53:23.975Z,1.33
2023-02-02T11:55:50.750Z,1.40
2023-02-02T11:58:20.431Z,1.25
2023-02-02T12:00:47.930Z,1.73
2023-02-02T12:03:24.756Z,1.60
2023-02-02T12:05:51.259Z,1.50
2023-02-02T12:08:17.678Z,1.30
2023-02-02T12:10:50.380Z,1.30
2023-02-02T12:13:25.729Z,1.48
2023-02-02T12:15:59.371Z,1.25
2023-02-02T12:18:47.990Z,1.08
2023-02-02T12:21:14.336Z,1.33
2023-02-02T12:23:43.486Z,2.13
2023-02-02T12:26:28.527Z,1.58
2023-02-02T12:29:00.909Z,1.63
2023-02-02T12:31:30.614Z,1.35
2023-02-02T12:34:06.505Z,1.77
2023-02-02T12:36:51.926Z,1.23
2023-02-02T12:39:18.291Z,1.40
2023-02-02T12:42:03.591Z,1.45
2023-02-02T12:44:54.037Z,1.42
2023-02-02T12:47:20.456Z,1.80
2023-02-02T12:50:05.813Z,1.20
2023-02-02T12:53:02.801Z,1.20
2023-02-02T12:55:58.764Z,1.38
2023-02-02T13:01:27.766Z,1.10
2023-02-02T13:04:20.179Z,1.23
2023-02-02T13:07:01.626Z,1.10
2023-02-02T13:09:30.206Z,1.67
2023-02-02T13:12:02.579Z,1.55
2023-02-02T13:14:31.287Z,1.45
2023-02-02T13:17:01.108Z,1.30
2023-02-02T13:19:54.079Z,1.02
2023-02-02T13:22:24.508Z,3.20
2023-02-02T13:24:53.964Z,1.40
2023-02-02T13:27:21.973Z,0.95
2023-02-02T13:30:08.685Z,1.08
2023-02-02T13:32:39.093Z,1.40
2023-02-02T13:35:05.415Z,1.00
2023-02-02T13:37:41.030Z,1.08
2023-02-02T13:40:16.478Z,1.23
2023-02-02T13:45:19.960Z,1.13
2023-02-02T13:47:51.889Z,1.35
2023-02-02T13:50:19.857Z,1.83
2023-02-02T13:53:02.249Z,1.20
2023-02-02T13:55:31.701Z,1.20
2023-02-02T14:00:37.696Z,1.10
2023-02-02T14:03:06.008Z,1.05
2023-02-02T14:05:37.177Z,1.77
2023-02-02T14:08:06.711Z,1.35
2023-02-02T14:10:35.352Z,1.33
2023-02-02T14:13:39.783Z,1.45
2023-02-02T14:16:07.067Z,1.20
2023-02-02T14:18:48.822Z,1.15
2023-02-02T14:21:30.606Z,1.10
2023-02-02T14:23:57.718Z,1.35
2023-02-02T14:26:43.107Z,1.42
2023-02-02T14:29:39.308Z,1.77
2023-02-02T14:32:32.345Z,1.67
2023-02-02T14:35:08.017Z,1.65
2023-02-02T14:37:34.774Z,1.05
2023-02-02T14:40:07.273Z,1.60
2023-02-02T14:43:31.070Z,1.02
2023-02-02T14:46:12.706Z,1.40
2023-02-02T14:48:40.312Z,1.23
2023-02-02T14:51:15.832Z,1.30
2023-02-02T14:56:10.664Z,1.25
2023-02-02T14:58:37.179Z,1.50
2023-02-02T15:01:24.857Z,1.20
2023-02-02T15:03:52.948Z,1.50
2023-02-02T15:06:35.471Z,1.30
2023-02-02T15:09:20.182Z,1.50
2023-02-02T15:12:00.883Z,1.40
2023-02-02T15:14:36.897Z,1.45
2023-02-02T15:17:07.055Z,1.65
2023-02-02T15:19:37.896Z,1.40
2023-02-02T15:22:23.045Z,1.50
2023-02-02T15:24:49.549Z,1.60
2023-02-02T15:27:19.604Z,1.50
2023-02-02T15:29:49.193Z,1.50
2023-02-02T15:32:17.353Z,1.40
2023-02-02T15:34:46.446Z,1.65
2023-02-02T15:37:15.152Z,1.55
2023-02-02T15:39:49.296Z,1.50
2023-02-02T15:42:48.896Z,1.42
2023-02-02T15:45:46.667Z,1.50
2023-02-02T15:48:22.614Z,1.48
2023-02-02T15:50:51.324Z,1.52
2023-02-02T15:53:25.534Z,1.52
2023-02-02T15:55:52.553Z,1.92
2023-02-02T15:58:24.173Z,2.28
2023-02-02T16:00:58.658Z,1.85
2023-02-02T16:03:27.863Z,2.10
2023-02-02T16:05:55.791Z,1.88
2023-02-02T16:08:29.932Z,1.73
2023-02-02T16:11:08.158Z,1.70
2023-02-02T16:13:34.900Z,1.83
2023-02-02T16:16:06.813Z,2.08
2023-02-02T16:18:33.951Z,1.50
2023-02-02T16:21:02.467Z,1.92
2023-02-02T16:23:31.298Z,2.00
2023-02-02T16:25:59.840Z,2.40
2023-02-02T16:28:26.855Z,2.15
2023-02-02T16:30:53.485Z,1.67
2023-02-02T16:33:36.718Z,1.55
2023-02-02T16:36:24.410Z,1.85
2023-02-02T16:38:52.513Z,2.72
2023-02-02T16:41:28.066Z,2.20
2023-02-02T16:43:54.543Z,1.77
2023-02-02T16:46:41.114Z,1.80
2023-02-02T16:49:13.812Z,1.65
2023-02-02T16:51:40.217Z,1.90
2023-02-02T16:54:06.584Z,1.80
2023-02-02T16:56:38.029Z,2.67
2023-02-02T16:59:15.957Z,1.83
2023-02-02T17:01:44.470Z,1.90
2023-02-02T17:04:37.438Z,1.80
2023-02-02T17:07:09.297Z,1.77
2023-02-02T17:09:37.442Z,1.65
2023-02-02T17:12:09.273Z,1.90
2023-02-02T17:14:49.699Z,1.70
2023-02-02T17:17:16.293Z,2.25
2023-02-02T17:19:42.709Z,2.28
2023-02-02T17:22:10.020Z,2.53
2023-02-02T17:24:36.648Z,2.10
2023-02-02T17:27:03.134Z,1.95
2023-02-02T17:29:29.654Z,2.28
2023-02-02T17:31:56.848Z,2.20
2023-02-02T17:34:23.807Z,2.03
2023-02-02T17:36:50.273Z,2.47
2023-02-02T17:39:16.672Z,2.33
2023-02-02T17:41:45.010Z,2.22
2023-02-02T17:44:11.473Z,2.03
2023-02-02T17:46:40.054Z,2.03
2023-02-02T17:49:06.622Z,2.10
2023-02-02T17:51:34.235Z,2.05
2023-02-02T17:54:00.614Z,2.10
2023-02-02T17:56:27.424Z,1.88
2023-02-02T17:58:53.809Z,1.88
2023-02-02T18:01:20.181Z,2.38
2023-02-02T18:03:47.745Z,2.50
2023-02-02T18:06:14.172Z,2.65
2023-02-02T18:08:40.962Z,2.80
2023-02-02T18:11:09.317Z,2.65
2023-02-02T18:13:35.672Z,2.75
2023-02-02T18:16:02.160Z,3.15
2023-02-02T18:18:29.869Z,2.90
2023-02-02T18:20:56.366Z,3.55
2023-02-02T18:23:24.568Z,3.85
2023-02-02T18:25:52.897Z,3.00
2023-02-02T18:28:19.345Z,2.97
2023-02-02T18:30:48.882Z,2.97
2023-02-02T18:33:17.859Z,2.78
2023-02-02T18:35:44.943Z,2.80
2023-02-02T18:38:11.277Z,4.15
2023-02-02T18:40:38.416Z,4.90
2023-02-02T18:43:04.941Z,3.88
2023-02-02T18:45:31.466Z,3.80
2023-02-02T18:47:57.798Z,5.03
2023-02-02T18:50:24.335Z,3.13
2023-02-02T18:52:50.928Z,3.22
2023-02-02T18:55:20.297Z,2.97
2023-02-02T18:57:46.613Z,3.15
2023-02-02T19:00:13.261Z,3.10
2023-02-02T19:02:39.622Z,3.50
2023-02-02T19:05:25.889Z,4.00
2023-02-02T19:07:55.096Z,3.95
2023-02-02T19:10:22.023Z,2.83
2023-02-02T19:12:58.725Z,2.60
2023-02-02T19:15:26.668Z,3.13
2023-02-02T19:17:54.585Z,2.53
2023-02-02T19:20:28.498Z,3.50
2023-02-02T19:23:10.798Z,4.40
2023-02-02T19:25:37.372Z,4.15
2023-02-02T19:28:09.035Z,3.63
2023-02-02T19:30:35.397Z,4.97
2023-02-02T19:33:02.002Z,3.95
2023-02-02T19:35:29.377Z,3.42
2023-02-02T19:38:00.355Z,4.45
2023-02-02T19:40:27.004Z,4.85
2023-02-02T19:42:56.355Z,5.25
2023-02-02T19:45:25.594Z,4.90
2023-02-02T19:47:53.225Z,4.57
2023-02-02T19:50:21.890Z,5.15
2023-02-02T19:52:49.081Z,4.75
2023-02-02T19:55:23.891Z,3.40
2023-02-02T19:57:51.144Z,3.10
2023-02-02T20:00:20.686Z,2.97
2023-02-02T20:02:59.283Z,2.10
2023-02-02T20:05:37.513Z,2.15
2023-02-02T20:08:22.259Z,2.75
2023-02-02T20:10:49.183Z,2.10
2023-02-02T20:13:15.864Z,2.10
2023-02-02T20:15:42.846Z,2.22
2023-02-02T20:18:17.300Z,2.30
2023-02-02T20:20:44.741Z,1.98
2023-02-02T20:23:20.003Z,2.10
2023-02-02T20:25:46.487Z,2.05
2023-02-02T20:28:29.723Z,2.25
2023-02-02T20:30:56.373Z,2.20
2023-02-02T20:33:23.797Z,2.05
2023-02-02T20:35:50.383Z,2.47
2023-02-02T20:38:20.539Z,1.85
2023-02-02T20:40:47.007Z,1.98
2023-02-02T20:43:15.772Z,2.08
2023-02-02T20:45:42.322Z,2.25
2023-02-02T20:48:09.710Z,1.95
2023-02-02T20:50:36.128Z,2.00
2023-02-02T20:53:02.477Z,1.95
2023-02-02T20:55:28.914Z,2.10
2023-02-02T20:57:55.346Z,2.70
2023-02-02T21:00:26.897Z,2.40
2023-02-02T21:02:55.337Z,2.85
2023-02-02T21:05:22.196Z,2.53
2023-02-02T21:07:54.414Z,2.17
2023-02-02T21:10:24.673Z,2.40
2023-02-02T21:12:52.074Z,2.15
2023-02-02T21:15:19.035Z,2.03
2023-02-02T21:17:45.569Z,2.22
2023-02-02T21:20:12.978Z,2.13
2023-02-02T21:22:39.321Z,2.03
2023-02-02T21:25:06.147Z,3.00
2023-02-02T21:27:32.569Z,3.05
2023-02-02T21:29:58.966Z,2.97
2023-02-02T21:32:25.340Z,3.50
2023-02-02T21:34:51.704Z,3.58
2023-02-02T21:37:18.255Z,3.33
2023-02-02T21:39:51.814Z,2.85
2023-02-02T21:42:22.331Z,2.38
2023-02-02T21:44:52.448Z,3.15
2023-02-02T21:47:27.971Z,3.53
2023-02-02T21:49:55.588Z,3.38
2023-02-02T21:52:23.216Z,2.95
2023-02-02T21:54:49.724Z,3.22
2023-02-02T21:57:26.357Z,2.72
2023-02-02T21:59:56.244Z,2.88
2023-02-02T22:02:31.558Z,2.45
2023-02-02T22:04:59.297Z,2.42
2023-02-02T22:07:25.848Z,2.83
2023-02-02T22:09:53.503Z,2.38
2023-02-02T22:12:21.582Z,2.60
2023-02-02T22:14:48.946Z,2.72
2023-02-02T22:17:18.419Z,2.88
2023-02-02T22:19:44.976Z,2.63
2023-02-02T22:22:13.862Z,2.30
2023-02-02T22:24:40.286Z,2.00
2023-02-02T22:27:21.486Z,1.92
2023-02-02T22:29:48.199Z,1.70
2023-02-02T22:32:14.601Z,2.20
2023-02-02T22:34:40.959Z,2.25
2023-02-02T22:37:07.310Z,2.40
2023-02-02T22:39:34.662Z,2.45
2023-02-02T22:42:01.053Z,2.25
2023-02-02T22:44:27.469Z,2.88
2023-02-02T22:46:53.927Z,2.47
2023-02-02T22:49:20.275Z,2.22
2023-02-02T22:51:46.600Z,2.17
2023-02-02T22:54:12.981Z,2.60
2023-02-02T22:56:39.324Z,2.80
2023-02-02T22:59:05.740Z,2.78
2023-02-02T23:01:32.224Z,2.63
2023-02-02T23:03:58.725Z,2.65
2023-02-02T23:06:25.073Z,2.70
2023-02-02T23:08:51.491Z,2.38
2023-02-02T23:11:17.849Z,2.65
2023-02-02T23:13:44.218Z,2.75
2023-02-02T23:16:10.922Z,2.40
2023-02-02T23:18:37.372Z,2.33
2023-02-02T23:21:03.767Z,2.85
2023-02-02T23:23:30.117Z,2.50
2023-02-02T23:25:56.482Z,2.80
2023-02-02T23:28:22.839Z,2.22
2023-02-02T23:30:51.557Z,2.28
2023-02-02T23:33:17.960Z,2.00
2023-02-02T23:35:46.629Z,2.47
2023-02-02T23:38:13.969Z,1.98
2023-02-02T23:40:40.283Z,2.35
2023-02-02T23:43:06.675Z,2.92
2023-02-02T23:45:33.972Z,2.33
2023-02-02T23:48:00.912Z,2.22
2023-02-02T23:50:27.988Z,2.60
2023-02-02T23:52:54.733Z,2.03
2023-02-02T23:55:21.117Z,2.40
2023-02-02T23:57:47.560Z,2.47
